createdAt,value
2019-05-21T13:17:00.598Z,11.30
2019-05-21T13:19:33.054Z,11.10
2019-05-21T13:22:05.438Z,11.20
2019-05-21T13:24:37.909Z,11.10
2019-05-21T13:27:10.500Z,11.20
2019-05-21T13:29:42.874Z,11.20
2019-05-21T13:32:15.720Z,11.30
2019-05-21T13:34:48.157Z,11.30
2019-05-21T13:37:20.731Z,11.30
2019-05-21T13:39:53.154Z,11.40
2019-05-21T13:42:25.505Z,11.40
2019-05-21T13:44:57.857Z,11.40
2019-05-21T13:47:30.314Z,11.50
2019-05-21T13:50:02.971Z,11.50
2019-05-21T13:52:35.577Z,11.50
2019-05-21T13:55:10.998Z,11.60
2019-05-21T13:57:43.653Z,11.60
2019-05-21T14:00:17.821Z,11.60
2019-05-21T14:02:50.916Z,11.40
2019-05-21T14:05:24.163Z,11.30
2019-05-21T14:07:56.720Z,11.40
2019-05-21T14:10:29.058Z,11.40
2019-05-21T14:13:01.486Z,11.40
2019-05-21T14:15:34.095Z,11.50
2019-05-21T14:18:07.074Z,11.60
2019-05-21T14:20:40.155Z,11.70
2019-05-21T14:23:12.807Z,11.70
2019-05-21T14:25:45.313Z,11.60
2019-05-21T14:28:18.068Z,11.40
2019-05-21T14:30:50.485Z,11.40
2019-05-21T14:33:22.950Z,11.50
2019-05-21T14:35:55.298Z,11.60
2019-05-21T14:38:28.054Z,11.80
2019-05-21T14:41:00.409Z,11.90
2019-05-21T14:43:32.943Z,12.10
2019-05-21T14:46:05.366Z,12.20
2019-05-21T14:48:38.003Z,12.50
2019-05-21T14:51:13.427Z,12.40
2019-05-21T14:53:44.385Z,12.50
2019-05-21T14:56:16.860Z,12.60
2019-05-21T14:58:49.400Z,12.50
2019-05-21T15:01:21.835Z,12.40
2019-05-21T15:03:54.333Z,12.30
2019-05-21T15:06:27.383Z,12.30
2019-05-21T15:08:59.984Z,12.30
2019-05-21T15:11:32.341Z,12.20
2019-05-21T15:14:04.757Z,12.40
2019-05-21T15:16:37.282Z,12.70
2019-05-21T15:19:10.397Z,12.50
2019-05-21T15:21:44.291Z,12.50
2019-05-21T15:24:16.913Z,12.50
2019-05-21T15:26:49.468Z,12.60
2019-05-21T15:29:21.867Z,12.70
2019-05-21T15:31:54.286Z,12.90
2019-05-21T15:34:26.784Z,13.10
2019-05-21T15:36:59.129Z,13.50
2019-05-21T15:39:31.531Z,13.30
2019-05-21T15:42:03.947Z,12.90
2019-05-21T15:44:36.337Z,12.60
2019-05-21T15:47:09.030Z,12.70
2019-05-21T15:49:41.390Z,13.00
2019-05-21T15:52:13.983Z,12.90
2019-05-21T15:54:46.345Z,12.80
2019-05-21T15:57:18.785Z,13.20
2019-05-21T15:59:51.200Z,13.50
2019-05-21T16:02:23.904Z,13.50
2019-05-21T16:04:56.139Z,13.30
2019-05-21T16:07:29.615Z,13.30
2019-05-21T16:10:01.995Z,13.30
2019-05-21T16:12:34.224Z,13.30
2019-05-21T16:15:10.999Z,13.20
2019-05-21T16:17:43.832Z,12.80
2019-05-21T16:20:18.369Z,12.80
2019-05-21T16:22:50.896Z,12.60
2019-05-21T16:25:23.621Z,12.70
2019-05-21T16:27:56.156Z,12.80
2019-05-21T16:30:28.542Z,12.80
2019-05-21T16:33:00.902Z,12.80
2019-05-21T16:35:34.462Z,13.10
2019-05-21T16:38:06.862Z,13.30
2019-05-21T16:40:39.720Z,13.60
2019-05-21T16:43:12.069Z,13.50
2019-05-21T16:45:44.458Z,13.70
2019-05-21T16:48:17.086Z,13.60
2019-05-21T16:50:49.221Z,13.70
2019-05-21T16:53:22.381Z,14.10
2019-05-21T16:55:55.188Z,14.00
2019-05-21T16:58:27.573Z,14.30
2019-05-21T17:01:00.389Z,14.30
2019-05-21T17:03:32.763Z,14.30
2019-05-21T17:06:05.335Z,14.00
2019-05-21T17:08:37.712Z,14.10
2019-05-21T17:11:10.085Z,13.90
2019-05-21T17:13:42.455Z,14.20
2019-05-21T17:16:14.798Z,13.80
2019-05-21T17:18:47.199Z,13.90
2019-05-21T17:21:19.922Z,14.10
2019-05-21T17:23:52.587Z,14.00
2019-05-21T18:20:01.344Z,14.80
2019-05-21T18:22:35.163Z,15.00
2019-05-21T18:25:08.789Z,15.80
2019-05-21T18:27:41.268Z,15.80
2019-05-21T18:30:14.350Z,15.50
2019-05-21T18:32:47.536Z,15.20
2019-05-21T18:35:20.114Z,14.70
2019-05-21T18:37:53.270Z,14.70
2019-05-21T18:40:25.773Z,15.20
2019-05-21T18:42:58.129Z,15.60
2019-05-21T18:45:30.466Z,15.90
2019-05-21T18:48:03.022Z,15.90
2019-05-21T18:50:36.941Z,16.00
2019-05-21T18:53:10.426Z,16.00
2019-05-21T18:55:42.746Z,15.80
2019-05-21T18:58:17.195Z,15.20
2019-05-21T19:00:49.466Z,15.80
2019-05-21T19:03:25.787Z,15.50
2019-05-21T19:05:56.118Z,15.70
2019-05-21T19:08:28.548Z,15.70
2019-05-21T19:11:01.687Z,15.50
2019-05-21T19:13:34.525Z,15.10
2019-05-21T19:16:08.269Z,14.70
2019-05-21T19:18:41.484Z,14.60
2019-05-21T19:21:15.947Z,14.60
2019-05-21T19:23:48.994Z,13.80
2019-05-21T19:26:21.573Z,13.60
2019-05-21T19:28:54.327Z,13.70
2019-05-21T19:31:26.767Z,13.70
2019-05-21T19:33:59.423Z,14.00
2019-05-21T19:36:32.081Z,14.10
2019-05-21T19:39:05.657Z,14.70
2019-05-21T19:41:38.351Z,15.70
2019-05-21T19:44:10.674Z,17.60
2019-05-21T19:46:43.362Z,17.60
2019-05-21T19:49:15.907Z,20.00
2019-05-21T19:51:49.562Z,20.80
2019-05-21T19:54:22.492Z,19.90
2019-05-21T19:56:55.875Z,20.80
2019-05-21T19:59:28.410Z,19.50
2019-05-21T20:02:00.989Z,17.50
2019-05-21T20:04:33.889Z,16.30
2019-05-21T20:07:08.524Z,19.00
2019-05-21T20:09:42.710Z,20.90
2019-05-21T20:12:15.719Z,21.50
2019-05-21T20:14:48.546Z,19.70
2019-05-21T20:17:21.518Z,21.50
2019-05-21T20:19:54.793Z,21.10
2019-05-21T20:22:28.328Z,21.00
2019-05-21T20:25:00.691Z,19.40
2019-05-21T20:27:33.476Z,19.30
2019-05-21T20:30:12.858Z,18.50
2019-05-21T20:32:43.571Z,17.90
2019-05-21T20:35:17.689Z,17.50
2019-05-21T20:37:51.048Z,16.80
2019-05-21T20:40:24.289Z,16.40
2019-05-21T20:42:57.063Z,15.90
2019-05-21T20:45:30.910Z,15.70
2019-05-21T20:48:04.571Z,16.30
2019-05-21T20:50:37.426Z,18.80
2019-05-21T20:53:10.544Z,18.30
2019-05-21T20:55:43.109Z,17.40
2019-05-21T20:58:15.581Z,19.70
2019-05-21T21:00:55.000Z,19.30
2019-05-21T21:03:28.042Z,19.60
2019-05-21T21:06:01.678Z,18.10
2019-05-21T21:08:35.143Z,17.90
2019-05-21T21:11:08.931Z,19.00
2019-05-21T21:13:42.125Z,17.60
2019-05-21T21:16:14.712Z,18.60
2019-05-21T21:18:48.404Z,22.80
2019-05-21T21:21:20.973Z,24.40
2019-05-21T21:23:56.500Z,24.90
2019-05-21T21:26:29.001Z,22.70
2019-05-21T21:29:01.739Z,24.70
2019-05-21T21:31:34.511Z,25.60
2019-05-21T21:34:07.164Z,23.00
2019-05-21T21:36:39.481Z,21.80
2019-05-21T21:39:13.226Z,22.70
2019-05-21T21:41:45.710Z,22.20
2019-05-21T21:44:33.169Z,20.20
2019-05-21T21:46:52.680Z,21.20
2019-05-21T21:49:26.451Z,19.20
2019-05-21T21:52:00.103Z,18.90
2019-05-21T21:54:33.000Z,18.80
2019-05-21T21:57:05.942Z,23.40
2019-05-21T21:59:38.694Z,21.40
2019-05-21T22:02:13.699Z,19.00
2019-05-21T22:04:47.539Z,18.50
2019-05-21T22:07:20.669Z,18.90
2019-05-21T22:09:53.046Z,18.60
2019-05-21T22:12:25.782Z,19.90
2019-05-21T22:14:59.918Z,19.40
2019-05-21T22:17:32.345Z,18.70
2019-05-21T22:20:06.193Z,18.30
2019-05-21T22:22:39.228Z,18.10
2019-05-21T22:25:12.353Z,18.20
2019-05-21T22:27:44.716Z,18.10
2019-05-21T22:30:17.632Z,17.60
2019-05-21T22:32:50.600Z,17.30
2019-05-21T22:35:23.446Z,17.10
2019-05-21T22:37:55.853Z,17.10
2019-05-21T22:40:28.777Z,16.90
2019-05-21T22:43:01.596Z,17.00
2019-05-21T22:45:34.005Z,17.00
2019-05-21T22:48:07.099Z,17.20
2019-05-21T22:50:39.750Z,17.70
2019-05-21T22:53:12.502Z,17.60
2019-05-21T22:55:45.169Z,17.20
2019-05-21T22:58:18.187Z,17.30
2019-05-21T23:00:51.880Z,17.20
2019-05-21T23:03:25.341Z,17.40
2019-05-21T23:05:58.148Z,18.00
2019-05-21T23:08:30.522Z,18.40
2019-05-21T23:11:03.260Z,18.00
2019-05-21T23:13:36.611Z,18.20
2019-05-21T23:16:10.016Z,18.20
2019-05-21T23:19:00.785Z,17.40
2019-05-21T23:21:53.822Z,17.60
2019-05-21T23:24:26.829Z,22.50
2019-05-21T23:27:00.490Z,23.30
2019-05-21T23:29:33.077Z,21.60
2019-05-21T23:32:06.711Z,19.00
2019-05-21T23:34:40.613Z,18.20
2019-05-21T23:37:17.487Z,16.30
2019-05-21T23:39:52.817Z,15.50
2019-05-21T23:42:30.211Z,15.30
2019-05-21T23:44:59.921Z,15.20
2019-05-21T23:47:32.230Z,15.00
2019-05-21T23:50:05.799Z,14.30
2019-05-21T23:52:38.918Z,14.30
2019-05-21T23:55:12.546Z,14.50
2019-05-21T23:57:45.909Z,14.30
